sensor_id;sensor_type;location;lat;lon;timestamp;P1;durP1;ratioP1;P2;durP2;ratioP2
57335;SDS011;43171;50.994;18.204;2022-08-19T00:01:28;10.30;;;8.20;;
57335;SDS011;43171;50.994;18.204;2022-08-19T00:03:55;10.40;;;8.30;;
57335;SDS011;43171;50.994;18.204;2022-08-19T00:06:22;10.50;;;7.80;;
57335;SDS011;43171;50.994;18.204;2022-08-19T00:08:48;11.20;;;8.20;;
57335;SDS011;43171;50.994;18.204;2022-08-19T00:11:16;10.00;;;8.70;;
57335;SDS011;43171;50.994;18.204;2022-08-19T00:13:42;9.70;;;8.70;;
57335;SDS011;43171;50.994;18.204;2022-08-19T00:16:08;13.10;;;9.10;;
57335;SDS011;43171;50.994;18.204;2022-08-19T00:18:34;9.20;;;8.30;;
57335;SDS011;43171;50.994;18.204;2022-08-19T00:21:00;9.50;;;8.40;;
57335;SDS011;43171;50.994;18.204;2022-08-19T00:23:27;10.50;;;9.20;;
57335;SDS011;43171;50.994;18.204;2022-08-19T00:25:52;11.80;;;9.40;;
57335;SDS011;43171;50.994;18.204;2022-08-19T00:28:18;11.30;;;9.30;;
57335;SDS011;43171;50.994;18.204;2022-08-19T00:30:45;10.80;;;8.90;;
57335;SDS011;43171;50.994;18.204;2022-08-19T00:33:12;12.40;;;9.00;;
57335;SDS011;43171;50.994;18.204;2022-08-19T00:35:38;9.80;;;8.80;;
57335;SDS011;43171;50.994;18.204;2022-08-19T00:38:04;10.70;;;9.30;;
57335;SDS011;43171;50.994;18.204;2022-08-19T00:40:31;11.10;;;9.60;;
57335;SDS011;43171;50.994;18.204;2022-08-19T00:42:57;10.60;;;9.40;;
57335;SDS011;43171;50.994;18.204;2022-08-19T00:45:28;11.00;;;8.90;;
57335;SDS011;43171;50.994;18.204;2022-08-19T00:47:56;11.20;;;9.20;;
57335;SDS011;43171;50.994;18.204;2022-08-19T00:50:22;12.00;;;9.60;;
57335;SDS011;43171;50.994;18.204;2022-08-19T00:52:49;11.40;;;9.90;;
57335;SDS011;43171;50.994;18.204;2022-08-19T00:55:17;11.60;;;9.40;;
57335;SDS011;43171;50.994;18.204;2022-08-19T00:57:50;10.30;;;9.20;;
57335;SDS011;43171;50.994;18.204;2022-08-19T01:00:20;10.70;;;9.60;;
57335;SDS011;43171;50.994;18.204;2022-08-19T01:02:46;13.50;;;9.80;;
57335;SDS011;43171;50.994;18.204;2022-08-19T01:05:14;14.20;;;10.40;;
57335;SDS011;43171;50.994;18.204;2022-08-19T01:07:41;14.10;;;9.80;;
57335;SDS011;43171;50.994;18.204;2022-08-19T01:10:10;10.50;;;9.50;;
57335;SDS011;43171;50.994;18.204;2022-08-19T01:12:38;11.80;;;10.10;;
57335;SDS011;43171;50.994;18.204;2022-08-19T01:15:09;12.30;;;10.40;;
57335;SDS011;43171;50.994;18.204;2022-08-19T01:17:38;11.60;;;10.30;;
57335;SDS011;43171;50.994;18.204;2022-08-19T01:20:05;11.00;;;9.80;;
57335;SDS011;43171;50.994;18.204;2022-08-19T01:22:43;12.90;;;10.30;;
57335;SDS011;43171;50.994;18.204;2022-08-19T01:25:10;12.20;;;10.90;;
57335;SDS011;43171;50.994;18.204;2022-08-19T01:27:40;13.60;;;10.50;;
57335;SDS011;43171;50.994;18.204;2022-08-19T01:30:08;12.80;;;10.20;;
57335;SDS011;43171;50.994;18.204;2022-08-19T01:32:35;11.40;;;10.10;;
57335;SDS011;43171;50.994;18.204;2022-08-19T01:35:02;12.20;;;10.00;;
57335;SDS011;43171;50.994;18.204;2022-08-19T01:37:29;12.00;;;10.70;;
57335;SDS011;43171;50.994;18.204;2022-08-19T01:39:55;13.30;;;10.70;;
57335;SDS011;43171;50.994;18.204;2022-08-19T01:42:21;12.20;;;10.50;;
57335;SDS011;43171;50.994;18.204;2022-08-19T01:44:47;12.60;;;10.90;;
57335;SDS011;43171;50.994;18.204;2022-08-19T01:47:14;13.50;;;10.90;;
57335;SDS011;43171;50.994;18.204;2022-08-19T01:49:40;13.50;;;11.20;;
57335;SDS011;43171;50.994;18.204;2022-08-19T01:52:05;14.30;;;10.60;;
57335;SDS011;43171;50.994;18.204;2022-08-19T01:54:31;11.70;;;10.20;;
57335;SDS011;43171;50.994;18.204;2022-08-19T01:56:59;13.40;;;11.20;;
57335;SDS011;43171;50.994;18.204;2022-08-19T01:59:28;12.40;;;11.10;;
57335;SDS011;43171;50.994;18.204;2022-08-19T02:01:54;12.20;;;11.00;;
57335;SDS011;43171;50.994;18.204;2022-08-19T02:04:20;13.70;;;10.50;;
57335;SDS011;43171;50.994;18.204;2022-08-19T02:06:46;12.70;;;11.50;;
57335;SDS011;43171;50.994;18.204;2022-08-19T02:09:11;12.40;;;11.10;;
57335;SDS011;43171;50.994;18.204;2022-08-19T02:11:37;13.00;;;11.40;;
57335;SDS011;43171;50.994;18.204;2022-08-19T02:14:04;12.20;;;10.90;;
57335;SDS011;43171;50.994;18.204;2022-08-19T02:16:31;12.20;;;10.80;;
57335;SDS011;43171;50.994;18.204;2022-08-19T02:18:57;12.70;;;11.40;;
57335;SDS011;43171;50.994;18.204;2022-08-19T02:21:25;13.50;;;12.00;;
57335;SDS011;43171;50.994;18.204;2022-08-19T02:23:51;12.60;;;10.90;;
57335;SDS011;43171;50.994;18.204;2022-08-19T02:26:17;12.20;;;10.90;;
57335;SDS011;43171;50.994;18.204;2022-08-19T02:28:43;14.00;;;11.50;;
57335;SDS011;43171;50.994;18.204;2022-08-19T02:31:14;13.70;;;11.50;;
57335;SDS011;43171;50.994;18.204;2022-08-19T02:33:42;14.60;;;11.80;;
57335;SDS011;43171;50.994;18.204;2022-08-19T02:36:10;13.20;;;11.20;;
57335;SDS011;43171;50.994;18.204;2022-08-19T02:38:37;12.40;;;10.90;;
57335;SDS011;43171;50.994;18.204;2022-08-19T02:41:04;13.10;;;11.80;;
57335;SDS011;43171;50.994;18.204;2022-08-19T02:43:40;14.70;;;11.90;;
57335;SDS011;43171;50.994;18.204;2022-08-19T02:46:20;13.00;;;11.10;;
57335;SDS011;43171;50.994;18.204;2022-08-19T02:48:52;13.50;;;11.20;;
57335;SDS011;43171;50.994;18.204;2022-08-19T02:51:23;12.50;;;11.20;;
57335;SDS011;43171;50.994;18.204;2022-08-19T02:53:50;14.10;;;12.30;;
57335;SDS011;43171;50.994;18.204;2022-08-19T02:56:16;14.50;;;11.90;;
57335;SDS011;43171;50.994;18.204;2022-08-19T02:58:42;13.10;;;11.70;;
57335;SDS011;43171;50.994;18.204;2022-08-19T03:01:09;12.90;;;11.30;;
57335;SDS011;43171;50.994;18.204;2022-08-19T03:03:36;13.50;;;11.60;;
57335;SDS011;43171;50.994;18.204;2022-08-19T03:06:03;14.30;;;12.20;;
57335;SDS011;43171;50.994;18.204;2022-08-19T03:08:33;13.60;;;12.10;;
57335;SDS011;43171;50.994;18.204;2022-08-19T03:10:59;13.40;;;11.80;;
57335;SDS011;43171;50.994;18.204;2022-08-19T03:13:25;13.70;;;11.60;;
57335;SDS011;43171;50.994;18.204;2022-08-19T03:15:50;13.70;;;12.10;;
57335;SDS011;43171;50.994;18.204;2022-08-19T03:18:16;14.50;;;12.60;;
57335;SDS011;43171;50.994;18.204;2022-08-19T03:20:48;13.50;;;11.90;;
57335;SDS011;43171;50.994;18.204;2022-08-19T03:23:15;12.70;;;11.40;;
57335;SDS011;43171;50.994;18.204;2022-08-19T03:25:44;13.70;;;12.30;;
57335;SDS011;43171;50.994;18.204;2022-08-19T03:28:11;15.50;;;13.40;;
57335;SDS011;43171;50.994;18.204;2022-08-19T03:30:38;14.50;;;12.90;;
57335;SDS011;43171;50.994;18.204;2022-08-19T03:33:08;14.00;;;12.00;;
57335;SDS011;43171;50.994;18.204;2022-08-19T03:35:34;13.70;;;12.00;;
57335;SDS011;43171;50.994;18.204;2022-08-19T03:38:03;15.00;;;12.50;;
57335;SDS011;43171;50.994;18.204;2022-08-19T03:40:29;15.40;;;13.20;;
57335;SDS011;43171;50.994;18.204;2022-08-19T03:42:56;14.50;;;12.60;;
57335;SDS011;43171;50.994;18.204;2022-08-19T03:45:22;16.10;;;12.10;;
57335;SDS011;43171;50.994;18.204;2022-08-19T03:47:48;15.30;;;13.00;;
57335;SDS011;43171;50.994;18.204;2022-08-19T03:50:14;14.20;;;12.70;;
57335;SDS011;43171;50.994;18.204;2022-08-19T03:52:40;14.80;;;12.70;;
57335;SDS011;43171;50.994;18.204;2022-08-19T03:55:06;15.80;;;12.80;;
57335;SDS011;43171;50.994;18.204;2022-08-19T03:57:33;15.40;;;12.00;;
57335;SDS011;43171;50.994;18.204;2022-08-19T03:59:59;16.30;;;12.50;;
57335;SDS011;43171;50.994;18.204;2022-08-19T04:02:25;14.40;;;12.80;;
57335;SDS011;43171;50.994;18.204;2022-08-19T04:04:53;15.90;;;12.50;;
57335;SDS011;43171;50.994;18.204;2022-08-19T04:07:19;18.60;;;13.20;;
57335;SDS011;43171;50.994;18.204;2022-08-19T04:09:47;16.80;;;12.90;;
57335;SDS011;43171;50.994;18.204;2022-08-19T04:12:13;15.50;;;12.70;;
57335;SDS011;43171;50.994;18.204;2022-08-19T04:14:39;16.40;;;13.30;;
57335;SDS011;43171;50.994;18.204;2022-08-19T04:17:05;15.40;;;13.20;;
57335;SDS011;43171;50.994;18.204;2022-08-19T04:19:31;17.90;;;12.80;;
57335;SDS011;43171;50.994;18.204;2022-08-19T04:21:58;15.00;;;12.00;;
57335;SDS011;43171;50.994;18.204;2022-08-19T04:24:24;17.20;;;13.30;;
57335;SDS011;43171;50.994;18.204;2022-08-19T04:26:50;15.30;;;13.40;;
57335;SDS011;43171;50.994;18.204;2022-08-19T04:29:25;17.60;;;13.40;;
57335;SDS011;43171;50.994;18.204;2022-08-19T04:31:53;14.80;;;12.60;;
57335;SDS011;43171;50.994;18.204;2022-08-19T04:34:20;15.90;;;12.80;;
57335;SDS011;43171;50.994;18.204;2022-08-19T04:36:47;15.80;;;13.40;;
57335;SDS011;43171;50.994;18.204;2022-08-19T04:39:17;16.40;;;13.20;;
57335;SDS011;43171;50.994;18.204;2022-08-19T04:41:45;16.60;;;12.60;;
57335;SDS011;43171;50.994;18.204;2022-08-19T04:44:30;16.10;;;13.00;;
57335;SDS011;43171;50.994;18.204;2022-08-19T04:46:58;15.50;;;13.00;;
57335;SDS011;43171;50.994;18.204;2022-08-19T04:49:24;16.60;;;12.90;;
57335;SDS011;43171;50.994;18.204;2022-08-19T04:51:51;15.20;;;12.70;;
57335;SDS011;43171;50.994;18.204;2022-08-19T04:54:20;17.70;;;12.80;;
57335;SDS011;43171;50.994;18.204;2022-08-19T04:56:51;16.00;;;12.80;;
57335;SDS011;43171;50.994;18.204;2022-08-19T04:59:18;14.90;;;13.20;;
57335;SDS011;43171;50.994;18.204;2022-08-19T05:01:45;16.00;;;12.70;;
57335;SDS011;43171;50.994;18.204;2022-08-19T05:04:14;14.40;;;12.50;;
57335;SDS011;43171;50.994;18.204;2022-08-19T05:06:42;15.50;;;12.30;;
57335;SDS011;43171;50.994;18.204;2022-08-19T05:09:08;15.60;;;12.80;;
57335;SDS011;43171;50.994;18.204;2022-08-19T05:11:35;15.00;;;12.80;;
57335;SDS011;43171;50.994;18.204;2022-08-19T05:14:03;17.50;;;12.50;;
57335;SDS011;43171;50.994;18.204;2022-08-19T05:16:29;15.20;;;12.20;;
57335;SDS011;43171;50.994;18.204;2022-08-19T05:18:55;14.80;;;12.20;;
57335;SDS011;43171;50.994;18.204;2022-08-19T05:21:40;15.70;;;12.70;;
57335;SDS011;43171;50.994;18.204;2022-08-19T05:24:25;16.30;;;12.60;;
57335;SDS011;43171;50.994;18.204;2022-08-19T05:26:52;15.50;;;12.20;;
57335;SDS011;43171;50.994;18.204;2022-08-19T05:29:19;18.50;;;12.30;;
57335;SDS011;43171;50.994;18.204;2022-08-19T05:31:46;20.60;;;12.50;;
57335;SDS011;43171;50.994;18.204;2022-08-19T05:34:14;14.90;;;12.30;;
57335;SDS011;43171;50.994;18.204;2022-08-19T05:36:41;14.00;;;12.30;;
57335;SDS011;43171;50.994;18.204;2022-08-19T05:39:09;22.40;;;12.50;;
57335;SDS011;43171;50.994;18.204;2022-08-19T05:41:41;17.70;;;12.20;;
57335;SDS011;43171;50.994;18.204;2022-08-19T05:44:07;14.40;;;12.10;;
57335;SDS011;43171;50.994;18.204;2022-08-19T05:46:34;17.70;;;12.50;;
57335;SDS011;43171;50.994;18.204;2022-08-19T05:49:04;14.70;;;11.50;;
57335;SDS011;43171;50.994;18.204;2022-08-19T05:51:31;12.80;;;11.30;;
57335;SDS011;43171;50.994;18.204;2022-08-19T05:53:59;14.90;;;10.90;;
57335;SDS011;43171;50.994;18.204;2022-08-19T05:56:26;12.10;;;10.60;;
57335;SDS011;43171;50.994;18.204;2022-08-19T05:58:52;12.60;;;11.10;;
57335;SDS011;43171;50.994;18.204;2022-08-19T06:01:19;13.70;;;10.80;;
57335;SDS011;43171;50.994;18.204;2022-08-19T06:03:45;12.30;;;10.90;;
57335;SDS011;43171;50.994;18.204;2022-08-19T06:06:11;13.40;;;10.90;;
57335;SDS011;43171;50.994;18.204;2022-08-19T06:08:38;13.30;;;10.60;;
57335;SDS011;43171;50.994;18.204;2022-08-19T06:11:11;12.30;;;10.80;;
57335;SDS011;43171;50.994;18.204;2022-08-19T06:14:02;13.30;;;10.50;;
57335;SDS011;43171;50.994;18.204;2022-08-19T06:16:29;11.70;;;10.50;;
57335;SDS011;43171;50.994;18.204;2022-08-19T06:18:57;12.30;;;10.00;;
57335;SDS011;43171;50.994;18.204;2022-08-19T06:21:25;13.20;;;9.50;;
57335;SDS011;43171;50.994;18.204;2022-08-19T06:23:52;14.60;;;9.50;;
57335;SDS011;43171;50.994;18.204;2022-08-19T06:26:20;12.10;;;9.90;;
57335;SDS011;43171;50.994;18.204;2022-08-19T06:28:47;11.20;;;9.60;;
57335;SDS011;43171;50.994;18.204;2022-08-19T06:31:17;13.00;;;9.60;;
57335;SDS011;43171;50.994;18.204;2022-08-19T06:33:49;13.30;;;9.30;;
57335;SDS011;43171;50.994;18.204;2022-08-19T06:36:18;16.40;;;10.00;;
57335;SDS011;43171;50.994;18.204;2022-08-19T06:38:57;12.90;;;9.10;;
57335;SDS011;43171;50.994;18.204;2022-08-19T06:41:24;11.60;;;9.30;;
57335;SDS011;43171;50.994;18.204;2022-08-19T06:43:50;14.00;;;10.10;;
57335;SDS011;43171;50.994;18.204;2022-08-19T06:46:16;14.10;;;9.60;;
57335;SDS011;43171;50.994;18.204;2022-08-19T06:48:43;11.80;;;9.20;;
57335;SDS011;43171;50.994;18.204;2022-08-19T06:51:09;10.20;;;8.70;;
57335;SDS011;43171;50.994;18.204;2022-08-19T06:53:35;12.70;;;9.00;;
57335;SDS011;43171;50.994;18.204;2022-08-19T06:56:00;15.90;;;8.60;;
57335;SDS011;43171;50.994;18.204;2022-08-19T06:58:30;10.90;;;8.50;;
57335;SDS011;43171;50.994;18.204;2022-08-19T07:00:58;11.50;;;8.50;;
57335;SDS011;43171;50.994;18.204;2022-08-19T07:03:31;13.40;;;8.60;;
57335;SDS011;43171;50.994;18.204;2022-08-19T07:06:02;10.30;;;8.10;;
57335;SDS011;43171;50.994;18.204;2022-08-19T07:08:29;9.30;;;8.30;;
57335;SDS011;43171;50.994;18.204;2022-08-19T07:10:56;9.80;;;8.50;;
57335;SDS011;43171;50.994;18.204;2022-08-19T07:13:21;11.70;;;8.60;;
57335;SDS011;43171;50.994;18.204;2022-08-19T07:15:48;11.30;;;8.30;;
57335;SDS011;43171;50.994;18.204;2022-08-19T07:18:16;10.00;;;8.10;;
57335;SDS011;43171;50.994;18.204;2022-08-19T07:20:46;9.80;;;8.20;;
57335;SDS011;43171;50.994;18.204;2022-08-19T07:23:12;9.70;;;8.00;;
57335;SDS011;43171;50.994;18.204;2022-08-19T07:25:38;11.50;;;7.90;;
57335;SDS011;43171;50.994;18.204;2022-08-19T07:28:04;9.60;;;7.30;;
57335;SDS011;43171;50.994;18.204;2022-08-19T07:30:35;10.00;;;7.80;;
57335;SDS011;43171;50.994;18.204;2022-08-19T07:33:02;14.40;;;8.10;;
57335;SDS011;43171;50.994;18.204;2022-08-19T07:35:28;9.80;;;7.80;;
57335;SDS011;43171;50.994;18.204;2022-08-19T07:37:53;11.90;;;7.70;;
57335;SDS011;43171;50.994;18.204;2022-08-19T07:40:19;12.40;;;7.60;;
57335;SDS011;43171;50.994;18.204;2022-08-19T07:42:45;15.80;;;8.90;;
57335;SDS011;43171;50.994;18.204;2022-08-19T07:45:10;9.20;;;6.80;;
57335;SDS011;43171;50.994;18.204;2022-08-19T07:47:36;12.10;;;7.00;;
57335;SDS011;43171;50.994;18.204;2022-08-19T07:50:02;11.00;;;6.90;;
57335;SDS011;43171;50.994;18.204;2022-08-19T07:52:29;11.50;;;6.80;;
57335;SDS011;43171;50.994;18.204;2022-08-19T07:54:55;8.90;;;6.90;;
57335;SDS011;43171;50.994;18.204;2022-08-19T07:57:21;13.20;;;7.80;;
57335;SDS011;43171;50.994;18.204;2022-08-19T07:59:46;9.90;;;7.20;;
57335;SDS011;43171;50.994;18.204;2022-08-19T08:02:12;10.10;;;7.20;;
57335;SDS011;43171;50.994;18.204;2022-08-19T08:04:38;10.60;;;7.10;;
57335;SDS011;43171;50.994;18.204;2022-08-19T08:07:22;11.40;;;7.10;;
57335;SDS011;43171;50.994;18.204;2022-08-19T08:10:06;9.70;;;6.80;;
57335;SDS011;43171;50.994;18.204;2022-08-19T08:12:36;11.50;;;7.20;;
57335;SDS011;43171;50.994;18.204;2022-08-19T08:15:08;11.40;;;7.00;;
57335;SDS011;43171;50.994;18.204;2022-08-19T08:17:36;10.90;;;7.20;;
57335;SDS011;43171;50.994;18.204;2022-08-19T08:20:04;9.50;;;6.90;;
57335;SDS011;43171;50.994;18.204;2022-08-19T08:22:32;9.90;;;7.30;;
57335;SDS011;43171;50.994;18.204;2022-08-19T08:25:18;10.40;;;7.10;;
57335;SDS011;43171;50.994;18.204;2022-08-19T08:27:48;8.90;;;6.90;;
57335;SDS011;43171;50.994;18.204;2022-08-19T08:30:16;8.00;;;7.20;;
57335;SDS011;43171;50.994;18.204;2022-08-19T08:32:44;10.70;;;7.10;;
57335;SDS011;43171;50.994;18.204;2022-08-19T08:35:11;11.20;;;7.00;;
57335;SDS011;43171;50.994;18.204;2022-08-19T08:37:39;9.20;;;7.00;;
57335;SDS011;43171;50.994;18.204;2022-08-19T08:40:28;11.20;;;6.80;;
57335;SDS011;43171;50.994;18.204;2022-08-19T08:43:01;8.30;;;6.20;;
57335;SDS011;43171;50.994;18.204;2022-08-19T08:45:32;10.80;;;6.70;;
57335;SDS011;43171;50.994;18.204;2022-08-19T08:48:02;9.70;;;6.70;;
57335;SDS011;43171;50.994;18.204;2022-08-19T08:50:34;9.40;;;6.80;;
57335;SDS011;43171;50.994;18.204;2022-08-19T08:53:04;11.10;;;6.70;;
57335;SDS011;43171;50.994;18.204;2022-08-19T08:55:31;10.40;;;6.30;;
57335;SDS011;43171;50.994;18.204;2022-08-19T08:58:09;10.60;;;6.20;;
57335;SDS011;43171;50.994;18.204;2022-08-19T09:00:43;12.00;;;6.10;;
57335;SDS011;43171;50.994;18.204;2022-08-19T09:03:14;9.50;;;6.10;;
57335;SDS011;43171;50.994;18.204;2022-08-19T09:05:49;11.20;;;6.20;;
57335;SDS011;43171;50.994;18.204;2022-08-19T09:14:34;10.30;;;5.20;;
57335;SDS011;43171;50.994;18.204;2022-08-19T09:17:07;9.00;;;4.70;;
57335;SDS011;43171;50.994;18.204;2022-08-19T09:19:48;9.30;;;4.60;;
57335;SDS011;43171;50.994;18.204;2022-08-19T09:22:16;10.00;;;4.70;;
57335;SDS011;43171;50.994;18.204;2022-08-19T09:24:41;8.30;;;4.70;;
57335;SDS011;43171;50.994;18.204;2022-08-19T09:27:07;7.20;;;4.90;;
57335;SDS011;43171;50.994;18.204;2022-08-19T09:29:34;8.20;;;5.00;;
57335;SDS011;43171;50.994;18.204;2022-08-19T09:31:59;10.80;;;4.50;;
57335;SDS011;43171;50.994;18.204;2022-08-19T09:34:25;8.80;;;4.70;;
57335;SDS011;43171;50.994;18.204;2022-08-19T09:36:51;10.30;;;5.20;;
57335;SDS011;43171;50.994;18.204;2022-08-19T09:39:18;8.90;;;5.20;;
57335;SDS011;43171;50.994;18.204;2022-08-19T09:41:44;9.90;;;5.20;;
57335;SDS011;43171;50.994;18.204;2022-08-19T09:44:09;10.80;;;5.40;;
57335;SDS011;43171;50.994;18.204;2022-08-19T09:46:37;15.20;;;6.50;;
57335;SDS011;43171;50.994;18.204;2022-08-19T09:49:02;56.70;;;9.40;;
57335;SDS011;43171;50.994;18.204;2022-08-19T09:51:31;11.80;;;5.80;;
57335;SDS011;43171;50.994;18.204;2022-08-19T09:54:02;9.10;;;5.50;;
57335;SDS011;43171;50.994;18.204;2022-08-19T09:56:28;10.40;;;5.50;;
57335;SDS011;43171;50.994;18.204;2022-08-19T09:58:53;10.40;;;5.90;;
57335;SDS011;43171;50.994;18.204;2022-08-19T10:01:23;10.60;;;6.00;;
57335;SDS011;43171;50.994;18.204;2022-08-19T10:03:51;10.90;;;6.20;;
57335;SDS011;43171;50.994;18.204;2022-08-19T10:06:21;10.40;;;5.70;;
57335;SDS011;43171;50.994;18.204;2022-08-19T10:08:49;11.20;;;5.90;;
57335;SDS011;43171;50.994;18.204;2022-08-19T10:11:17;9.90;;;5.40;;
57335;SDS011;43171;50.994;18.204;2022-08-19T10:13:44;9.90;;;5.90;;
57335;SDS011;43171;50.994;18.204;2022-08-19T10:16:11;10.50;;;5.80;;
57335;SDS011;43171;50.994;18.204;2022-08-19T10:18:39;12.00;;;5.60;;
57335;SDS011;43171;50.994;18.204;2022-08-19T10:21:19;13.20;;;6.00;;
57335;SDS011;43171;50.994;18.204;2022-08-19T10:23:53;11.70;;;5.30;;
57335;SDS011;43171;50.994;18.204;2022-08-19T10:26:24;16.50;;;5.60;;
57335;SDS011;43171;50.994;18.204;2022-08-19T10:28:52;9.90;;;5.30;;
57335;SDS011;43171;50.994;18.204;2022-08-19T10:31:20;7.90;;;4.70;;
57335;SDS011;43171;50.994;18.204;2022-08-19T10:33:49;9.40;;;5.20;;
57335;SDS011;43171;50.994;18.204;2022-08-19T10:36:19;9.00;;;4.70;;
57335;SDS011;43171;50.994;18.204;2022-08-19T10:38:50;6.40;;;4.80;;
57335;SDS011;43171;50.994;18.204;2022-08-19T10:41:21;8.70;;;4.60;;
57335;SDS011;43171;50.994;18.204;2022-08-19T10:43:52;8.60;;;4.90;;
57335;SDS011;43171;50.994;18.204;2022-08-19T10:46:20;11.50;;;5.70;;
57335;SDS011;43171;50.994;18.204;2022-08-19T10:48:47;7.70;;;4.70;;
57335;SDS011;43171;50.994;18.204;2022-08-19T10:51:12;8.70;;;4.80;;
57335;SDS011;43171;50.994;18.204;2022-08-19T10:53:57;9.70;;;4.90;;
57335;SDS011;43171;50.994;18.204;2022-08-19T10:56:24;8.30;;;4.70;;
57335;SDS011;43171;50.994;18.204;2022-08-19T10:59:08;8.20;;;4.70;;
57335;SDS011;43171;50.994;18.204;2022-08-19T11:01:34;9.70;;;5.10;;
57335;SDS011;43171;50.994;18.204;2022-08-19T11:04:00;8.50;;;5.30;;
57335;SDS011;43171;50.994;18.204;2022-08-19T11:06:27;10.70;;;5.70;;
57335;SDS011;43171;50.994;18.204;2022-08-19T11:08:53;8.10;;;5.60;;
57335;SDS011;43171;50.994;18.204;2022-08-19T11:11:20;10.30;;;6.00;;
57335;SDS011;43171;50.994;18.204;2022-08-19T11:13:47;11.30;;;5.80;;
57335;SDS011;43171;50.994;18.204;2022-08-19T11:16:16;11.30;;;5.80;;
57335;SDS011;43171;50.994;18.204;2022-08-19T11:18:44;9.00;;;6.40;;
57335;SDS011;43171;50.994;18.204;2022-08-19T11:21:15;13.00;;;6.50;;
57335;SDS011;43171;50.994;18.204;2022-08-19T11:23:46;9.80;;;6.30;;
57335;SDS011;43171;50.994;18.204;2022-08-19T11:26:13;13.20;;;7.00;;
57335;SDS011;43171;50.994;18.204;2022-08-19T11:28:39;11.10;;;6.60;;
57335;SDS011;43171;50.994;18.204;2022-08-19T11:31:09;15.20;;;6.90;;
57335;SDS011;43171;50.994;18.204;2022-08-19T11:33:37;11.40;;;6.70;;
57335;SDS011;43171;50.994;18.204;2022-08-19T11:36:02;12.80;;;6.50;;
57335;SDS011;43171;50.994;18.204;2022-08-19T11:38:28;9.90;;;5.40;;
57335;SDS011;43171;50.994;18.204;2022-08-19T11:40:56;12.90;;;5.90;;
57335;SDS011;43171;50.994;18.204;2022-08-19T11:43:22;9.90;;;6.20;;
57335;SDS011;43171;50.994;18.204;2022-08-19T11:45:48;11.60;;;6.50;;
57335;SDS011;43171;50.994;18.204;2022-08-19T11:48:13;15.20;;;6.50;;
57335;SDS011;43171;50.994;18.204;2022-08-19T11:50:39;12.20;;;6.30;;
57335;SDS011;43171;50.994;18.204;2022-08-19T11:53:07;10.70;;;7.00;;
57335;SDS011;43171;50.994;18.204;2022-08-19T11:55:36;10.30;;;6.50;;
57335;SDS011;43171;50.994;18.204;2022-08-19T11:58:04;10.10;;;6.20;;
57335;SDS011;43171;50.994;18.204;2022-08-19T12:00:32;12.90;;;6.40;;
57335;SDS011;43171;50.994;18.204;2022-08-19T12:02:59;12.00;;;6.30;;
57335;SDS011;43171;50.994;18.204;2022-08-19T12:05:24;13.80;;;6.80;;
57335;SDS011;43171;50.994;18.204;2022-08-19T12:07:50;11.40;;;7.10;;
57335;SDS011;43171;50.994;18.204;2022-08-19T12:10:15;13.20;;;7.50;;
57335;SDS011;43171;50.994;18.204;2022-08-19T12:12:41;14.70;;;7.50;;
57335;SDS011;43171;50.994;18.204;2022-08-19T12:15:08;13.60;;;7.70;;
57335;SDS011;43171;50.994;18.204;2022-08-19T12:17:36;10.90;;;7.50;;
57335;SDS011;43171;50.994;18.204;2022-08-19T12:20:02;18.60;;;7.40;;
57335;SDS011;43171;50.994;18.204;2022-08-19T12:22:29;15.70;;;7.60;;
57335;SDS011;43171;50.994;18.204;2022-08-19T12:24:55;14.40;;;7.80;;
57335;SDS011;43171;50.994;18.204;2022-08-19T12:27:21;11.10;;;6.80;;
57335;SDS011;43171;50.994;18.204;2022-08-19T12:29:46;11.00;;;6.70;;
57335;SDS011;43171;50.994;18.204;2022-08-19T12:32:12;12.60;;;6.60;;
57335;SDS011;43171;50.994;18.204;2022-08-19T12:34:40;18.00;;;7.00;;
57335;SDS011;43171;50.994;18.204;2022-08-19T12:37:07;11.10;;;6.90;;
57335;SDS011;43171;50.994;18.204;2022-08-19T12:39:34;16.30;;;7.20;;
57335;SDS011;43171;50.994;18.204;2022-08-19T12:42:04;10.80;;;6.90;;
57335;SDS011;43171;50.994;18.204;2022-08-19T12:44:31;13.20;;;7.00;;
57335;SDS011;43171;50.994;18.204;2022-08-19T12:46:57;12.60;;;7.20;;
57335;SDS011;43171;50.994;18.204;2022-08-19T12:49:23;10.20;;;6.50;;
57335;SDS011;43171;50.994;18.204;2022-08-19T12:51:50;10.60;;;7.10;;
57335;SDS011;43171;50.994;18.204;2022-08-19T12:54:15;14.50;;;6.90;;
57335;SDS011;43171;50.994;18.204;2022-08-19T12:56:41;16.10;;;6.50;;
57335;SDS011;43171;50.994;18.204;2022-08-19T12:59:07;15.10;;;7.30;;
57335;SDS011;43171;50.994;18.204;2022-08-19T13:01:34;10.90;;;6.80;;
57335;SDS011;43171;50.994;18.204;2022-08-19T13:03:59;12.30;;;6.90;;
57335;SDS011;43171;50.994;18.204;2022-08-19T13:06:25;11.40;;;6.50;;
57335;SDS011;43171;50.994;18.204;2022-08-19T13:08:51;10.90;;;6.50;;
57335;SDS011;43171;50.994;18.204;2022-08-19T13:11:18;13.00;;;6.60;;
57335;SDS011;43171;50.994;18.204;2022-08-19T13:13:45;11.60;;;6.60;;
57335;SDS011;43171;50.994;18.204;2022-08-19T13:16:13;11.60;;;6.40;;
57335;SDS011;43171;50.994;18.204;2022-08-19T13:18:39;10.20;;;6.60;;
57335;SDS011;43171;50.994;18.204;2022-08-19T13:21:06;16.60;;;7.40;;
57335;SDS011;43171;50.994;18.204;2022-08-19T13:23:34;9.60;;;6.90;;
57335;SDS011;43171;50.994;18.204;2022-08-19T13:26:03;11.10;;;6.80;;
57335;SDS011;43171;50.994;18.204;2022-08-19T13:28:31;12.50;;;7.00;;
57335;SDS011;43171;50.994;18.204;2022-08-19T13:31:20;11.80;;;7.10;;
57335;SDS011;43171;50.994;18.204;2022-08-19T13:34:06;10.40;;;6.90;;
57335;SDS011;43171;50.994;18.204;2022-08-19T13:36:32;9.50;;;7.10;;
57335;SDS011;43171;50.994;18.204;2022-08-19T13:38:59;11.00;;;6.90;;
57335;SDS011;43171;50.994;18.204;2022-08-19T13:41:24;8.90;;;6.60;;
57335;SDS011;43171;50.994;18.204;2022-08-19T13:43:51;10.80;;;6.60;;
57335;SDS011;43171;50.994;18.204;2022-08-19T13:46:18;13.10;;;7.00;;
57335;SDS011;43171;50.994;18.204;2022-08-19T13:48:45;9.30;;;6.20;;
57335;SDS011;43171;50.994;18.204;2022-08-19T13:51:11;9.70;;;6.50;;
57335;SDS011;43171;50.994;18.204;2022-08-19T13:53:37;12.50;;;6.40;;
57335;SDS011;43171;50.994;18.204;2022-08-19T13:56:08;10.20;;;6.70;;
57335;SDS011;43171;50.994;18.204;2022-08-19T13:58:35;13.10;;;6.80;;
57335;SDS011;43171;50.994;18.204;2022-08-19T14:01:02;9.60;;;6.60;;
57335;SDS011;43171;50.994;18.204;2022-08-19T14:03:29;9.10;;;6.10;;
57335;SDS011;43171;50.994;18.204;2022-08-19T14:05:55;11.90;;;6.80;;
57335;SDS011;43171;50.994;18.204;2022-08-19T14:08:22;11.00;;;6.90;;
57335;SDS011;43171;50.994;18.204;2022-08-19T14:10:48;12.40;;;6.90;;
57335;SDS011;43171;50.994;18.204;2022-08-19T14:13:15;11.60;;;7.10;;
57335;SDS011;43171;50.994;18.204;2022-08-19T14:15:42;11.50;;;6.30;;
57335;SDS011;43171;50.994;18.204;2022-08-19T14:18:08;10.10;;;6.00;;
57335;SDS011;43171;50.994;18.204;2022-08-19T14:20:35;9.30;;;5.60;;
57335;SDS011;43171;50.994;18.204;2022-08-19T14:23:00;9.50;;;5.50;;
57335;SDS011;43171;50.994;18.204;2022-08-19T14:25:27;9.70;;;5.60;;
57335;SDS011;43171;50.994;18.204;2022-08-19T14:27:54;9.30;;;6.10;;
57335;SDS011;43171;50.994;18.204;2022-08-19T14:30:24;14.30;;;7.30;;